Airfield :







YOU CAN JOIN US ON...

 
LOGIN :

Register | Disclaimer

   EN    FR    IT 

 









Legend :    VFR   Marginal VFR   IFR   Intensive IFR   Very Intensive IFR
Visi :
Ceiling :
>= 8 km
>= 3000ft
5 to 8 km
1000 to 3000 ft
1500m to 5 km
500 to 1000 ft
800 to 1500m
200 to 500 ft
< 800m
< 200 ft
Symbols :   Thunderstorms  Fog  Heavy snow  Heavy precipitations  Wind > 20 kt






- Airport Elevation : 235 ft
- IATA code : CCS


SVMI - Simon Bolivar

CURRENT METAR :
  • 230803Z AUTO 29005KT NCD 27/23 Q1013

EXPIRED METARs :
  • 230703Z AUTO 16003KT NCD 27/22 Q1013
  • 230603Z AUTO 28003KT NCD 26/23 Q1014
  • 230503Z AUTO 06003KT NCD 26/23 Q1014
  • 230500Z 1100KT 9999 BKN016 25/24 Q1014
  • 230403Z AUTO 09003KT NCD 27/23 Q1015

TAF TAF SVMI
Valid from the 23 at 00:00 until the 24 at 00:00 UTC


222200Z 2300/2400 07006KT 9999 SCT016 BKN080 TX34/2218Z TN22/2308Z
TEMPO 2300/2304 09003KT 8000 TSDZ BKN013CB
SVZM FIR / South America



MET'MAP, your aeronautical weather chart ! - Copyright ORBIFLY December 2007 - Disclaimer

ORBIFLY MET'MAP TEAM :

Programming & Development : Alexandra Zaïnal
Original concept : Baudouin d'Aumeries
Technical & hardware support : Manuel Goepfert
Assistance : Marc-Olivier Méhu




SOURCES & CREDITS :

   NOAA